createdAt,value
2023-05-13T00:02:13.680Z,61.19
2023-05-13T00:04:58.710Z,61.75
2023-05-13T00:07:43.615Z,61.15
2023-05-13T00:10:28.658Z,61.00
2023-05-13T00:13:13.683Z,62.39
2023-05-13T00:15:58.829Z,61.54
2023-05-13T00:18:43.829Z,62.63
2023-05-13T00:21:28.842Z,61.46
2023-05-13T00:24:13.795Z,61.55
2023-05-13T00:26:58.791Z,61.35
2023-05-13T00:29:43.851Z,61.73
2023-05-13T00:32:28.743Z,61.20
2023-05-13T00:35:13.814Z,61.27
2023-05-13T00:37:58.754Z,61.46
2023-05-13T00:40:43.754Z,61.79
2023-05-13T00:43:28.632Z,61.40
2023-05-13T00:46:13.611Z,61.63
2023-05-13T00:48:58.644Z,61.90
2023-05-13T00:51:43.551Z,61.11
2023-05-13T00:54:28.546Z,61.54
2023-05-13T00:57:13.502Z,61.15
2023-05-13T00:59:58.740Z,61.32
2023-05-13T01:02:43.777Z,61.41
2023-05-13T01:05:28.948Z,61.05
2023-05-13T01:08:13.981Z,61.17
2023-05-13T01:10:59.036Z,62.04
2023-05-13T01:13:44.253Z,61.76
2023-05-13T01:16:29.236Z,62.63
2023-05-13T01:19:14.338Z,62.23
2023-05-13T01:21:59.259Z,62.68
2023-05-13T01:24:44.349Z,62.46
2023-05-13T01:27:29.154Z,62.34
2023-05-13T01:30:14.325Z,62.25
2023-05-13T01:32:59.320Z,62.52
2023-05-13T01:35:44.170Z,62.90
2023-05-13T01:38:29.288Z,63.78
2023-05-13T01:41:14.259Z,64.02
2023-05-13T01:43:59.344Z,64.10
2023-05-13T01:46:44.421Z,63.51
2023-05-13T01:49:29.449Z,63.96
2023-05-13T01:52:14.475Z,63.96
2023-05-13T01:54:59.488Z,64.59
2023-05-13T01:57:44.674Z,64.01
2023-05-13T02:00:30.234Z,64.02
2023-05-13T02:03:15.569Z,64.39
2023-05-13T02:06:00.320Z,64.37
2023-05-13T02:08:45.139Z,64.02
2023-05-13T02:11:30.130Z,64.11
2023-05-13T02:14:15.061Z,63.43
2023-05-13T02:17:00.147Z,62.79
2023-05-13T02:19:45.071Z,62.31
2023-05-13T02:22:30.117Z,62.29
2023-05-13T02:25:15.120Z,62.67
2023-05-13T02:28:00.224Z,63.01
2023-05-13T02:30:45.254Z,62.96
2023-05-13T02:33:30.325Z,63.14
2023-05-13T02:36:15.198Z,63.19
2023-05-13T02:39:00.178Z,63.95
2023-05-13T02:41:45.211Z,63.52
2023-05-13T02:44:30.239Z,63.73
2023-05-13T02:47:15.319Z,63.51
2023-05-13T02:50:00.279Z,62.81
2023-05-13T02:52:45.366Z,62.76
2023-05-13T02:55:30.437Z,62.85
2023-05-13T02:58:15.440Z,63.42
2023-05-13T03:01:00.365Z,63.58
2023-05-13T03:03:45.314Z,62.68
2023-05-13T03:06:30.416Z,63.41
2023-05-13T03:09:15.406Z,63.48
2023-05-13T03:12:00.443Z,63.21
2023-05-13T03:14:45.470Z,63.88
2023-05-13T03:17:30.705Z,63.40
2023-05-13T03:20:15.507Z,62.73
2023-05-13T03:23:00.599Z,63.80
2023-05-13T03:25:45.642Z,63.68
2023-05-13T03:28:30.629Z,63.00
2023-05-13T03:31:15.765Z,63.14
2023-05-13T03:34:00.684Z,63.35
2023-05-13T03:36:45.844Z,63.94
2023-05-13T03:39:30.759Z,62.98
2023-05-13T03:42:15.971Z,63.36
2023-05-13T03:45:00.940Z,62.65
2023-05-13T03:47:45.918Z,63.17
2023-05-13T03:50:30.960Z,63.11
2023-05-13T03:53:15.893Z,62.97
2023-05-13T03:56:00.972Z,63.88
2023-05-13T03:58:45.990Z,63.59
2023-05-13T04:01:31.248Z,62.77
2023-05-13T04:04:16.105Z,62.42
2023-05-13T04:07:01.160Z,61.64
2023-05-13T04:09:46.227Z,61.56
2023-05-13T04:12:31.054Z,61.39
2023-05-13T04:15:16.260Z,61.56
2023-05-13T04:18:01.234Z,62.21
2023-05-13T04:20:46.314Z,62.38
2023-05-13T04:23:31.395Z,63.09
2023-05-13T04:26:16.401Z,63.13
2023-05-13T04:29:01.322Z,63.07
2023-05-13T04:31:46.337Z,62.60
2023-05-13T04:34:31.332Z,62.82
2023-05-13T04:37:16.292Z,63.22
2023-05-13T04:40:01.445Z,62.66
2023-05-13T04:42:46.433Z,62.15
2023-05-13T04:45:31.461Z,62.51
2023-05-13T04:48:16.399Z,62.34
2023-05-13T04:51:01.502Z,63.02
2023-05-13T04:53:46.916Z,64.41
2023-05-13T04:56:31.937Z,64.26
2023-05-13T04:59:17.039Z,65.32
2023-05-13T05:02:02.152Z,64.67
2023-05-13T05:04:47.179Z,63.79
2023-05-13T05:07:32.153Z,62.63
2023-05-13T05:10:17.269Z,62.38
2023-05-13T05:13:02.262Z,62.67
2023-05-13T05:15:47.351Z,62.32
2023-05-13T05:18:32.393Z,62.45
2023-05-13T05:21:17.358Z,61.90
2023-05-13T05:24:02.613Z,61.27
2023-05-13T05:26:47.416Z,61.60
2023-05-13T05:29:32.430Z,62.30
2023-05-13T05:32:17.211Z,62.56
2023-05-13T05:35:02.364Z,62.39
2023-05-13T05:37:47.350Z,61.96
2023-05-13T05:40:32.172Z,62.15
2023-05-13T05:43:17.754Z,62.54
2023-05-13T05:46:02.768Z,62.34
2023-05-13T05:48:47.840Z,61.78
2023-05-13T05:51:32.795Z,62.12
2023-05-13T05:54:17.951Z,61.52
2023-05-13T05:57:02.940Z,62.35
2023-05-13T05:59:48.059Z,62.12
2023-05-13T06:02:32.990Z,61.88
2023-05-13T06:05:17.775Z,61.07
2023-05-13T06:08:03.046Z,60.79
2023-05-13T06:10:47.947Z,60.28
2023-05-13T06:13:32.949Z,60.16
2023-05-13T06:16:17.943Z,60.42
2023-05-13T06:19:02.894Z,59.55
2023-05-13T06:21:47.752Z,59.09
2023-05-13T06:24:32.612Z,59.05
2023-05-13T06:27:17.594Z,58.95
2023-05-13T06:30:02.480Z,58.72
2023-05-13T06:32:57.737Z,57.90
2023-05-13T06:35:46.185Z,58.34
2023-05-13T06:38:31.166Z,59.35
2023-05-13T06:41:16.061Z,59.25
2023-05-13T06:44:01.216Z,59.77
2023-05-13T06:46:46.218Z,60.69
2023-05-13T06:49:31.180Z,60.81
2023-05-13T06:52:16.119Z,61.33
2023-05-13T06:55:01.080Z,60.98
2023-05-13T06:57:46.227Z,61.63
2023-05-13T07:00:31.124Z,61.84
2023-05-13T07:03:16.259Z,61.40
2023-05-13T07:06:00.992Z,61.59
2023-05-13T07:08:45.960Z,61.27
2023-05-13T07:11:30.960Z,62.20
2023-05-13T07:14:16.036Z,62.51
2023-05-13T07:17:00.940Z,63.21
2023-05-13T07:19:45.912Z,62.71
2023-05-13T07:22:31.094Z,62.95
2023-05-13T07:25:16.027Z,62.95
2023-05-13T07:28:00.996Z,62.52
2023-05-13T07:30:45.944Z,62.32
2023-05-13T07:33:31.043Z,61.20
2023-05-13T07:36:16.092Z,60.43
2023-05-13T07:39:02.071Z,60.76
2023-05-13T07:41:47.165Z,61.81
2023-05-13T07:44:32.058Z,59.29
2023-05-13T07:47:17.284Z,59.33
2023-05-13T07:50:02.149Z,57.17
2023-05-13T07:52:47.233Z,57.63
2023-05-13T07:55:32.270Z,59.93
2023-05-13T07:58:17.229Z,58.84
2023-05-13T08:01:02.225Z,58.28
2023-05-13T08:03:47.331Z,58.67
2023-05-13T08:06:32.771Z,58.16
2023-05-13T08:09:17.644Z,59.47
2023-05-13T08:12:02.722Z,61.10
2023-05-13T08:14:48.962Z,57.91
2023-05-13T08:17:34.066Z,58.72
2023-05-13T08:20:19.238Z,60.03
2023-05-13T08:23:04.153Z,55.84
2023-05-13T08:25:49.079Z,56.83
2023-05-13T08:28:34.023Z,55.74
2023-05-13T08:31:19.248Z,56.28
2023-05-13T08:34:03.982Z,56.24
2023-05-13T08:36:49.114Z,56.97
2023-05-13T08:39:34.164Z,56.09
2023-05-13T08:42:19.188Z,54.91
2023-05-13T08:45:04.142Z,54.30
2023-05-13T08:47:49.005Z,53.67
2023-05-13T08:50:33.972Z,50.79
2023-05-13T08:53:18.934Z,51.24
2023-05-13T08:56:04.086Z,50.71
2023-05-13T08:58:49.011Z,50.22
2023-05-13T09:01:34.145Z,50.53
2023-05-13T09:04:19.235Z,51.56
2023-05-13T09:07:04.237Z,53.89
2023-05-13T09:09:49.419Z,54.58
2023-05-13T09:12:34.285Z,55.99
2023-05-13T09:15:19.716Z,54.64
2023-05-13T09:18:04.612Z,57.00
2023-05-13T09:20:49.590Z,56.24
2023-05-13T09:23:34.600Z,57.76
2023-05-13T09:26:19.551Z,56.17
2023-05-13T09:29:04.518Z,56.41
2023-05-13T09:31:49.489Z,55.90
2023-05-13T09:34:34.612Z,56.78
2023-05-13T09:37:19.514Z,58.04
2023-05-13T09:40:04.448Z,59.30
2023-05-13T09:42:49.335Z,57.00
2023-05-13T09:45:34.511Z,58.16
2023-05-13T09:48:19.455Z,58.08
2023-05-13T09:51:05.511Z,56.19
2023-05-13T09:53:50.631Z,57.07
2023-05-13T09:56:35.539Z,53.43
2023-05-13T09:59:20.526Z,50.03
2023-05-13T10:02:05.502Z,49.87
2023-05-13T10:04:50.486Z,49.80
2023-05-13T10:07:35.487Z,43.58
2023-05-13T10:10:20.714Z,46.15
2023-05-13T10:13:05.957Z,45.63
2023-05-13T10:15:50.856Z,46.04
2023-05-13T10:18:35.908Z,46.20
2023-05-13T10:21:20.645Z,45.55
2023-05-13T10:24:05.556Z,45.70
2023-05-13T10:26:50.513Z,44.44
2023-05-13T10:29:35.383Z,42.62
2023-05-13T10:32:20.424Z,42.95
2023-05-13T10:35:05.332Z,41.35
2023-05-13T10:37:50.470Z,41.92
2023-05-13T10:40:35.345Z,45.18
2023-05-13T10:43:20.474Z,44.01
2023-05-13T10:46:05.434Z,46.45
2023-05-13T10:48:50.334Z,46.23
2023-05-13T10:51:35.424Z,45.41
2023-05-13T10:54:20.165Z,44.39
2023-05-13T10:57:05.160Z,44.32
2023-05-13T10:59:50.116Z,42.29
2023-05-13T11:02:35.255Z,45.17
2023-05-13T11:05:20.218Z,45.29
2023-05-13T11:08:05.120Z,47.90
2023-05-13T11:10:50.166Z,47.13
2023-05-13T11:13:35.197Z,47.30
2023-05-13T11:16:20.331Z,42.13
2023-05-13T11:19:05.224Z,39.66
2023-05-13T11:21:50.229Z,39.11
2023-05-13T11:24:35.219Z,40.76
2023-05-13T11:27:20.443Z,41.24
2023-05-13T11:30:05.444Z,40.16
2023-05-13T11:32:50.489Z,39.53
2023-05-13T11:35:35.518Z,41.50
2023-05-13T11:38:20.432Z,42.01
2023-05-13T11:41:05.420Z,41.18
2023-05-13T11:43:50.503Z,40.76
2023-05-13T11:46:35.491Z,39.97
2023-05-13T11:49:20.393Z,41.36
2023-05-13T11:52:05.576Z,41.35
2023-05-13T11:54:50.497Z,41.37
2023-05-13T11:57:35.456Z,39.30
2023-05-13T12:00:20.410Z,40.85
2023-05-13T12:03:05.438Z,39.69
2023-05-13T12:05:50.368Z,39.65
2023-05-13T12:08:35.340Z,41.02
2023-05-13T12:11:20.490Z,41.21
2023-05-13T12:14:05.385Z,38.62
2023-05-13T12:16:50.441Z,41.02
2023-05-13T12:19:35.405Z,39.36
2023-05-13T12:22:20.489Z,39.72
2023-05-13T12:25:05.496Z,40.37
2023-05-13T12:27:50.353Z,40.01
2023-05-13T12:30:35.403Z,40.28
2023-05-13T12:33:20.353Z,40.03
2023-05-13T12:36:05.258Z,40.91
2023-05-13T12:38:50.214Z,41.73
2023-05-13T12:41:35.368Z,40.78
2023-05-13T12:44:20.193Z,39.02
2023-05-13T12:47:05.365Z,39.83
2023-05-13T12:49:50.395Z,40.41
2023-05-13T12:52:35.345Z,40.30
2023-05-13T12:55:20.513Z,40.38
2023-05-13T12:58:05.631Z,40.31
2023-05-13T13:00:50.481Z,40.24
2023-05-13T13:03:35.511Z,39.59
2023-05-13T13:06:20.407Z,38.27
2023-05-13T13:09:05.386Z,38.03
2023-05-13T13:11:50.424Z,37.04
2023-05-13T13:14:35.625Z,38.09
2023-05-13T13:17:20.467Z,36.49
2023-05-13T13:20:05.428Z,37.71
2023-05-13T13:22:50.237Z,39.33
2023-05-13T13:25:35.227Z,39.31
2023-05-13T13:28:20.223Z,38.17
2023-05-13T13:31:05.356Z,37.16
2023-05-13T13:33:50.340Z,38.39
2023-05-13T13:36:35.240Z,38.31
2023-05-13T13:39:20.261Z,38.37
2023-05-13T13:42:05.198Z,37.88
2023-05-13T13:44:50.297Z,38.94
2023-05-13T13:47:35.159Z,39.42
2023-05-13T13:50:20.129Z,38.31
2023-05-13T13:53:04.888Z,39.58
2023-05-13T13:55:49.821Z,39.81
2023-05-13T13:58:34.875Z,39.41
2023-05-13T14:01:19.880Z,39.07
2023-05-13T14:04:04.914Z,40.11
2023-05-13T14:06:49.696Z,39.56
2023-05-13T14:09:34.706Z,38.98
2023-05-13T14:12:19.548Z,39.98
2023-05-13T14:15:04.402Z,39.71
2023-05-13T14:17:49.402Z,39.59
2023-05-13T14:20:34.265Z,40.69
2023-05-13T14:23:19.050Z,40.69
2023-05-13T14:26:03.959Z,41.14
2023-05-13T14:28:49.252Z,41.58
2023-05-13T14:31:34.286Z,41.92
2023-05-13T14:34:19.711Z,42.46
2023-05-13T14:37:04.723Z,42.36
2023-05-13T14:39:50.362Z,40.48
2023-05-13T14:42:35.529Z,41.63
2023-05-13T14:45:20.010Z,40.62
2023-05-13T14:48:05.167Z,40.43
2023-05-13T14:50:50.031Z,40.34
2023-05-13T14:53:35.081Z,39.76
2023-05-13T14:56:19.914Z,39.59
2023-05-13T14:59:05.026Z,39.29
2023-05-13T15:01:49.911Z,39.80
2023-05-13T15:04:34.911Z,40.01
2023-05-13T15:07:19.812Z,39.79
2023-05-13T15:10:04.609Z,38.51
2023-05-13T15:12:49.637Z,39.91
2023-05-13T15:15:34.538Z,41.01
2023-05-13T15:18:19.492Z,38.90
2023-05-13T15:21:04.314Z,42.57
2023-05-13T15:23:49.274Z,44.58
2023-05-13T15:26:34.234Z,43.01
2023-05-13T15:29:18.932Z,43.28
2023-05-13T15:32:04.073Z,44.77
2023-05-13T15:34:48.894Z,47.89
2023-05-13T15:37:33.935Z,46.79
2023-05-13T15:40:18.841Z,49.05
2023-05-13T15:43:03.891Z,49.44
2023-05-13T15:45:48.766Z,50.91
2023-05-13T15:48:33.909Z,51.60
2023-05-13T15:51:18.724Z,51.55
2023-05-13T15:54:03.815Z,50.35
2023-05-13T15:56:48.810Z,51.14
2023-05-13T15:59:33.766Z,50.08
2023-05-13T16:02:18.847Z,50.14
2023-05-13T16:05:03.843Z,48.67
2023-05-13T16:07:48.904Z,48.48
2023-05-13T16:10:33.762Z,50.86
2023-05-13T16:13:18.883Z,51.44
2023-05-13T16:16:03.812Z,50.76
2023-05-13T16:18:48.948Z,50.69
2023-05-13T16:21:33.809Z,52.04
2023-05-13T16:24:18.819Z,51.15
2023-05-13T16:27:03.936Z,52.24
2023-05-13T16:29:48.806Z,52.00
2023-05-13T16:32:33.944Z,51.94
2023-05-13T16:35:18.786Z,52.47
2023-05-13T16:38:03.868Z,52.56
2023-05-13T16:40:48.933Z,51.55
2023-05-13T16:43:34.004Z,53.12
2023-05-13T16:46:19.056Z,54.58
2023-05-13T16:49:04.194Z,53.95
2023-05-13T16:51:49.194Z,54.19
2023-05-13T16:54:34.376Z,49.31
2023-05-13T16:57:19.219Z,50.38
2023-05-13T17:00:04.141Z,50.00
2023-05-13T17:02:49.280Z,49.76
2023-05-13T17:05:34.177Z,49.63
2023-05-13T17:08:19.172Z,50.88
2023-05-13T17:11:04.309Z,51.20
2023-05-13T17:13:49.239Z,51.26
2023-05-13T17:16:34.375Z,50.77
2023-05-13T17:19:19.302Z,51.75
2023-05-13T17:22:04.415Z,51.47
2023-05-13T17:24:49.345Z,51.82
2023-05-13T17:27:34.145Z,51.63
2023-05-13T17:30:19.093Z,51.83
2023-05-13T17:33:04.078Z,52.05
2023-05-13T17:35:49.212Z,51.95
2023-05-13T17:38:34.149Z,51.93
2023-05-13T17:41:19.326Z,51.58
2023-05-13T17:44:04.153Z,52.11
2023-05-13T17:46:49.234Z,54.55
2023-05-13T17:49:34.350Z,56.33
2023-05-13T17:52:19.174Z,55.43
2023-05-13T17:55:04.058Z,55.65
2023-05-13T17:57:48.998Z,55.89
2023-05-13T18:00:33.986Z,56.31
2023-05-13T18:03:18.853Z,55.58
2023-05-13T18:06:03.859Z,54.57
2023-05-13T18:08:48.684Z,55.72
2023-05-13T18:11:33.755Z,55.50
2023-05-13T18:14:18.724Z,55.47
2023-05-13T18:17:03.665Z,55.55
2023-05-13T18:19:48.726Z,55.23
2023-05-13T18:22:33.616Z,54.89
2023-05-13T18:25:18.629Z,55.47
2023-05-13T18:28:03.582Z,54.54
2023-05-13T18:30:48.718Z,55.49
2023-05-13T18:33:33.577Z,56.08
2023-05-13T18:36:18.674Z,56.80
2023-05-13T18:39:03.625Z,57.06
2023-05-13T18:41:48.595Z,57.57
2023-05-13T18:44:33.621Z,56.67
2023-05-13T18:47:18.515Z,56.75
2023-05-13T18:50:03.526Z,56.37
2023-05-13T18:52:48.547Z,57.33
2023-05-13T18:55:33.690Z,58.24
2023-05-13T18:58:18.761Z,58.56
2023-05-13T19:01:03.744Z,59.25
2023-05-13T19:03:48.785Z,58.20
2023-05-13T19:06:33.585Z,57.54
2023-05-13T19:09:18.579Z,57.65
2023-05-13T19:12:03.586Z,57.41
2023-05-13T19:14:48.512Z,57.67
2023-05-13T19:17:33.529Z,58.20
2023-05-13T19:20:18.583Z,58.31
2023-05-13T19:23:03.508Z,58.94
2023-05-13T19:25:48.445Z,59.78
2023-05-13T19:28:34.119Z,59.14
2023-05-13T19:31:19.079Z,59.57
2023-05-13T19:34:04.027Z,59.13
2023-05-13T19:36:49.132Z,58.81
2023-05-13T19:39:34.136Z,59.02
2023-05-13T19:42:18.986Z,58.56
2023-05-13T19:45:03.969Z,58.75
2023-05-13T19:47:49.077Z,59.09
2023-05-13T19:50:34.027Z,58.93
2023-05-13T19:53:19.111Z,58.68
2023-05-13T19:56:04.051Z,58.88
2023-05-13T19:58:49.189Z,59.09
2023-05-13T20:01:34.107Z,59.11
2023-05-13T20:04:19.017Z,59.22
2023-05-13T20:07:04.016Z,59.05
2023-05-13T20:09:48.967Z,58.01
2023-05-13T20:12:33.940Z,58.66
2023-05-13T20:15:18.869Z,58.91
2023-05-13T20:18:04.073Z,59.81
2023-05-13T20:20:48.887Z,60.13
2023-05-13T20:23:33.900Z,61.24
2023-05-13T20:26:18.929Z,61.13
2023-05-13T20:29:03.855Z,60.88
2023-05-13T20:31:48.992Z,61.14
2023-05-13T20:34:33.721Z,61.30
2023-05-13T20:37:20.050Z,62.00
2023-05-13T20:40:06.089Z,62.15
2023-05-13T20:42:51.125Z,62.89
2023-05-13T20:45:36.152Z,62.50
2023-05-13T20:48:21.139Z,62.07
2023-05-13T20:51:06.185Z,62.01
2023-05-13T20:53:51.216Z,61.87
2023-05-13T20:56:36.446Z,61.79
2023-05-13T20:59:21.364Z,62.68
2023-05-13T21:02:06.441Z,63.23
2023-05-13T21:04:51.424Z,63.71
2023-05-13T21:07:36.408Z,62.93
2023-05-13T21:10:21.883Z,62.09
2023-05-13T21:13:06.751Z,62.02
2023-05-13T21:15:51.732Z,61.63
2023-05-13T21:18:36.536Z,61.76
2023-05-13T21:21:27.699Z,62.17
2023-05-13T21:24:12.834Z,63.30
2023-05-13T21:26:57.712Z,64.26
2023-05-13T21:29:42.892Z,63.57
2023-05-13T21:32:27.865Z,64.04
2023-05-13T21:35:13.000Z,63.51
2023-05-13T21:38:08.716Z,64.33
2023-05-13T21:40:56.680Z,63.24
2023-05-13T21:43:41.797Z,63.20
2023-05-13T21:46:26.649Z,62.66
2023-05-13T21:49:11.850Z,63.08
2023-05-13T21:51:56.818Z,63.55
2023-05-13T21:54:41.805Z,63.85
2023-05-13T21:57:26.762Z,64.82
2023-05-13T22:00:12.014Z,63.76
2023-05-13T22:02:57.207Z,64.60
2023-05-13T22:05:41.965Z,63.47
2023-05-13T22:08:27.032Z,64.25
2023-05-13T22:11:12.023Z,64.13
2023-05-13T22:13:57.138Z,64.63
2023-05-13T22:16:42.157Z,65.15
2023-05-13T22:19:27.143Z,66.10
2023-05-13T22:22:12.214Z,66.76
2023-05-13T22:24:57.267Z,67.30
2023-05-13T22:27:42.356Z,68.85
2023-05-13T22:30:27.373Z,68.40
2023-05-13T22:33:12.641Z,67.91
2023-05-13T22:35:57.403Z,67.61
2023-05-13T22:38:42.581Z,67.91
2023-05-13T22:41:27.436Z,67.73
2023-05-13T22:44:12.478Z,67.54
2023-05-13T22:46:57.392Z,66.24
2023-05-13T22:49:42.290Z,66.35
2023-05-13T22:52:27.289Z,66.05
2023-05-13T22:55:14.198Z,65.80
2023-05-13T22:57:59.331Z,65.26
2023-05-13T23:00:44.270Z,64.47
2023-05-13T23:03:29.327Z,63.99
2023-05-13T23:06:14.410Z,64.28
2023-05-13T23:08:59.345Z,64.73
2023-05-13T23:11:44.276Z,64.81
2023-05-13T23:14:29.304Z,64.96
2023-05-13T23:17:14.346Z,64.66
2023-05-13T23:19:59.239Z,64.14
2023-05-13T23:22:44.020Z,64.94
2023-05-13T23:25:28.939Z,66.14
2023-05-13T23:28:14.001Z,66.06
2023-05-13T23:30:59.177Z,66.78
2023-05-13T23:33:44.169Z,66.89
2023-05-13T23:36:29.399Z,67.50
2023-05-13T23:39:14.411Z,67.49
2023-05-13T23:41:59.663Z,67.34
2023-05-13T23:44:44.735Z,67.94
2023-05-13T23:47:29.871Z,68.06
2023-05-13T23:50:14.659Z,66.98
2023-05-13T23:52:59.581Z,67.24
2023-05-13T23:55:44.818Z,67.80
2023-05-13T23:58:29.750Z,67.67
